createdAt,value
2018-12-19T00:01:47.828Z,2.67
2018-12-19T00:04:18.146Z,2.40
2018-12-19T00:06:48.478Z,2.80
2018-12-19T00:09:19.819Z,2.57
2018-12-19T00:11:50.390Z,2.50
2018-12-19T00:14:21.449Z,2.43
2018-12-19T00:16:57.059Z,2.60
2018-12-19T00:19:30.202Z,2.63
2018-12-19T00:22:03.647Z,2.53
2018-12-19T00:24:34.781Z,2.50
2018-12-19T00:27:05.947Z,2.80
2018-12-19T00:29:36.262Z,2.43
2018-12-19T00:32:07.343Z,2.50
2018-12-19T00:34:37.741Z,2.70
2018-12-19T00:37:08.117Z,2.83
2018-12-19T00:39:38.491Z,2.93
2018-12-19T00:42:08.889Z,2.90
2018-12-19T00:44:39.207Z,2.97
2018-12-19T00:47:09.585Z,2.53
2018-12-19T00:49:39.983Z,3.20
2018-12-19T00:52:11.130Z,2.50
2018-12-19T00:54:41.507Z,2.20
2018-12-19T00:57:15.936Z,2.50
2018-12-19T00:59:47.337Z,3.00
2018-12-19T01:02:18.484Z,2.33
2018-12-19T01:04:49.793Z,2.60
2018-12-19T01:07:20.460Z,2.47
2018-12-19T01:09:51.535Z,2.63
2018-12-19T01:12:22.252Z,2.30
2018-12-19T01:14:52.613Z,2.33
2018-12-19T01:17:42.389Z,3.03
2018-12-19T01:20:35.134Z,2.83
2018-12-19T01:23:05.524Z,2.07
2018-12-19T01:25:35.899Z,2.57
2018-12-19T01:28:06.268Z,2.80
2018-12-19T01:30:37.615Z,2.60
2018-12-19T01:33:08.762Z,2.83
2018-12-19T01:35:40.923Z,2.93
2018-12-19T01:38:12.090Z,3.10
2018-12-19T01:40:42.464Z,2.73
2018-12-19T01:43:12.839Z,2.73
2018-12-19T01:45:44.488Z,3.07
2018-12-19T01:48:15.625Z,3.03
2018-12-19T01:50:46.978Z,3.23
2018-12-19T01:53:18.149Z,3.13
2018-12-19T01:55:48.712Z,2.93
2018-12-19T01:58:19.091Z,2.80
2018-12-19T02:00:49.492Z,3.00
2018-12-19T02:03:19.878Z,3.23
2018-12-19T02:06:09.643Z,3.17
2018-12-19T02:08:39.961Z,3.40
2018-12-19T02:11:10.330Z,3.20
2018-12-19T02:13:41.392Z,3.57
2018-12-19T02:16:11.767Z,3.30
2018-12-19T02:18:45.208Z,3.30
2018-12-19T02:21:15.957Z,3.43
2018-12-19T02:23:47.106Z,3.60
2018-12-19T02:26:18.238Z,3.57
2018-12-19T02:28:48.582Z,3.50
2018-12-19T02:31:19.913Z,3.10
2018-12-19T02:33:50.296Z,3.20
2018-12-19T02:36:28.202Z,2.90
2018-12-19T02:39:00.838Z,2.77
2018-12-19T02:41:31.977Z,2.73
2018-12-19T02:44:04.106Z,3.13
2018-12-19T02:46:34.664Z,2.87
2018-12-19T02:49:05.805Z,2.67
2018-12-19T02:51:36.390Z,3.20
2018-12-19T02:54:10.861Z,2.60
2018-12-19T02:56:41.248Z,2.93
2018-12-19T02:59:33.859Z,2.90
2018-12-19T03:02:04.229Z,3.10
2018-12-19T03:04:34.616Z,4.00
2018-12-19T03:07:05.333Z,3.00
2018-12-19T03:09:42.807Z,2.17
2018-12-19T03:12:07.942Z,2.80
2018-12-19T03:14:38.368Z,2.60
2018-12-19T03:17:09.493Z,2.43
2018-12-19T03:19:40.624Z,3.13
2018-12-19T03:22:11.013Z,2.60
2018-12-19T03:24:43.441Z,2.43
2018-12-19T03:27:14.798Z,2.80
2018-12-19T03:29:46.773Z,2.80
2018-12-19T03:32:17.156Z,2.40
2018-12-19T03:37:30.726Z,2.13
2018-12-19T03:40:01.870Z,2.90
2018-12-19T03:42:32.428Z,2.23
2018-12-19T03:45:03.152Z,2.23
2018-12-19T03:47:34.506Z,2.60
2018-12-19T03:50:04.884Z,2.87
2018-12-19T03:52:35.275Z,1.80
2018-12-19T03:55:05.655Z,2.50
2018-12-19T03:57:36.314Z,2.77
2018-12-19T04:00:07.494Z,2.70
2018-12-19T04:02:37.805Z,2.80
2018-12-19T04:05:08.171Z,2.60
2018-12-19T04:07:38.555Z,2.27
2018-12-19T04:10:08.932Z,2.97
2018-12-19T04:12:39.318Z,2.90
2018-12-19T04:15:09.703Z,2.83
2018-12-19T04:17:40.847Z,3.03
2018-12-19T04:20:11.219Z,2.80
2018-12-19T04:22:45.714Z,2.60
2018-12-19T04:25:16.033Z,3.10
2018-12-19T04:27:47.183Z,2.40
2018-12-19T04:30:18.281Z,2.70
2018-12-19T04:32:48.658Z,2.53
2018-12-19T04:35:18.972Z,2.47
2018-12-19T04:37:50.125Z,2.50
2018-12-19T04:40:20.508Z,1.93
2018-12-19T04:42:51.892Z,2.53
2018-12-19T04:45:21.281Z,2.73
2018-12-19T04:47:52.431Z,2.73
2018-12-19T04:50:23.574Z,2.47
2018-12-19T04:52:54.744Z,2.40
2018-12-19T04:55:25.064Z,2.23
2018-12-19T04:57:55.372Z,2.57
2018-12-19T05:00:28.630Z,2.30
2018-12-19T05:02:59.006Z,2.50
2018-12-19T05:05:29.375Z,2.90
2018-12-19T05:07:59.834Z,2.50
2018-12-19T05:10:30.219Z,2.37
2018-12-19T05:13:01.391Z,2.97
2018-12-19T05:15:31.792Z,2.67
2018-12-19T05:18:22.313Z,3.10
2018-12-19T05:20:52.710Z,2.53
2018-12-19T05:23:23.149Z,2.43
2018-12-19T05:25:55.262Z,3.00
2018-12-19T05:28:26.430Z,2.90
2018-12-19T05:30:56.813Z,2.93
2018-12-19T05:33:27.200Z,3.23
2018-12-19T05:35:57.799Z,2.40
2018-12-19T05:38:28.184Z,3.00
2018-12-19T05:40:58.565Z,3.07
2018-12-19T05:43:28.976Z,2.90
2018-12-19T05:46:00.331Z,2.70
2018-12-19T05:48:31.421Z,2.83
2018-12-19T05:51:02.612Z,2.40
2018-12-19T05:53:33.759Z,3.00
2018-12-19T05:56:04.397Z,2.33
2018-12-19T05:58:34.733Z,2.27
2018-12-19T06:01:05.111Z,2.60
2018-12-19T06:03:35.678Z,2.30
2018-12-19T06:06:06.783Z,2.73
2018-12-19T06:08:37.165Z,2.43
2018-12-19T06:11:07.674Z,2.80
2018-12-19T06:13:38.830Z,2.80
2018-12-19T06:16:09.230Z,2.50
2018-12-19T06:18:40.373Z,1.97
2018-12-19T06:21:11.019Z,2.57
2018-12-19T06:23:42.163Z,2.20
2018-12-19T06:26:13.313Z,2.80
2018-12-19T06:28:44.483Z,2.40
2018-12-19T06:31:14.861Z,2.20
2018-12-19T06:33:45.226Z,2.63
2018-12-19T06:36:15.639Z,3.13
2018-12-19T06:38:46.018Z,2.83
2018-12-19T06:41:16.597Z,2.23
2018-12-19T06:43:47.748Z,2.20
2018-12-19T06:46:18.068Z,2.53
2018-12-19T06:48:48.436Z,3.10
2018-12-19T06:51:19.865Z,2.33
2018-12-19T06:53:50.191Z,3.07
2018-12-19T06:56:20.575Z,2.40
2018-12-19T06:58:52.042Z,2.40
2018-12-19T07:01:23.183Z,2.30
2018-12-19T07:03:54.638Z,2.87
2018-12-19T07:06:25.814Z,2.93
2018-12-19T07:08:56.179Z,2.00
2018-12-19T07:11:26.563Z,2.37
2018-12-19T07:13:56.957Z,1.97
2018-12-19T07:16:28.415Z,3.17
2018-12-19T07:19:00.584Z,2.90
2018-12-19T07:21:31.169Z,2.47
2018-12-19T07:24:02.485Z,2.63
2018-12-19T07:26:32.850Z,2.90
2018-12-19T07:29:03.248Z,3.10
2018-12-19T07:31:39.701Z,2.60
2018-12-19T07:34:10.073Z,2.87
2018-12-19T07:36:40.419Z,3.33
2018-12-19T07:39:11.565Z,3.07
2018-12-19T07:41:42.897Z,2.67
2018-12-19T07:46:59.489Z,2.37
2018-12-19T07:49:30.896Z,2.50
2018-12-19T07:52:02.040Z,2.83
2018-12-19T07:54:32.675Z,2.33
2018-12-19T07:57:03.834Z,2.13
2018-12-19T07:59:34.152Z,2.30
2018-12-19T08:02:05.479Z,3.12
2018-12-19T08:04:35.825Z,2.33
2018-12-19T08:07:06.967Z,2.10
2018-12-19T08:09:38.107Z,2.10
2018-12-19T08:12:10.030Z,2.10
2018-12-19T08:14:40.406Z,2.63
2018-12-19T08:17:11.471Z,1.37
2018-12-19T08:19:41.867Z,1.83
2018-12-19T08:22:12.947Z,2.00
2018-12-19T08:24:43.319Z,1.40
2018-12-19T08:27:13.722Z,1.87
2018-12-19T08:29:44.089Z,1.90
2018-12-19T08:32:15.173Z,1.57
2018-12-19T08:34:45.558Z,1.83
2018-12-19T08:37:16.686Z,1.90
2018-12-19T08:39:48.053Z,1.70
2018-12-19T08:42:18.394Z,1.60
2018-12-19T08:44:48.767Z,1.50
2018-12-19T08:47:19.316Z,2.27
2018-12-19T08:49:50.687Z,2.00
2018-12-19T08:52:21.764Z,1.90
2018-12-19T08:54:59.520Z,2.43
2018-12-19T08:57:30.875Z,2.37
2018-12-19T09:00:02.221Z,2.00
2018-12-19T09:02:33.376Z,2.20
2018-12-19T09:05:03.691Z,1.90
2018-12-19T09:07:36.171Z,2.57
2018-12-19T09:10:06.509Z,2.60
2018-12-19T09:12:37.125Z,2.43
2018-12-19T09:15:08.478Z,2.20
2018-12-19T09:17:39.707Z,2.87
2018-12-19T09:20:10.799Z,2.50
2018-12-19T09:22:41.120Z,2.07
2018-12-19T09:25:11.526Z,2.23
2018-12-19T09:27:41.847Z,2.00
2018-12-19T09:30:12.933Z,2.53
2018-12-19T09:32:49.796Z,2.20
2018-12-19T09:35:20.391Z,2.40
2018-12-19T09:37:52.520Z,2.33
2018-12-19T09:40:23.885Z,2.20
2018-12-19T09:42:54.200Z,2.10
2018-12-19T09:45:24.515Z,1.83
2018-12-19T09:47:54.912Z,2.37
2018-12-19T09:50:25.529Z,2.40
2018-12-19T09:52:55.972Z,2.30
2018-12-19T09:55:26.338Z,2.30
2018-12-19T09:57:57.003Z,2.70
2018-12-19T10:00:27.563Z,2.43
2018-12-19T10:02:57.978Z,2.60
2018-12-19T10:05:28.291Z,2.57
2018-12-19T10:07:59.739Z,2.20
2018-12-19T10:10:31.192Z,2.33
2018-12-19T10:13:01.825Z,2.53
2018-12-19T10:15:33.156Z,2.83
2018-12-19T10:18:03.504Z,2.53
2018-12-19T10:20:36.373Z,3.13
2018-12-19T10:23:07.511Z,2.63
2018-12-19T10:25:37.847Z,2.93
2018-12-19T10:28:08.962Z,2.80
2018-12-19T10:30:49.478Z,2.60
2018-12-19T10:33:19.802Z,2.47
2018-12-19T10:35:50.409Z,3.80
2018-12-19T10:38:23.624Z,2.73
2018-12-19T10:40:53.943Z,2.60
2018-12-19T10:43:24.561Z,2.40
2018-12-19T10:45:55.916Z,2.67
2018-12-19T10:48:27.267Z,2.73
2018-12-19T10:50:59.541Z,2.67
2018-12-19T10:53:30.911Z,2.57
2018-12-19T10:56:01.894Z,2.53
2018-12-19T10:58:32.207Z,3.10
2018-12-19T11:01:04.935Z,3.27
2018-12-19T11:03:36.010Z,2.40
2018-12-19T11:06:09.446Z,2.20
2018-12-19T11:08:39.765Z,2.80
2018-12-19T11:11:10.150Z,2.37
2018-12-19T11:13:40.858Z,2.37
2018-12-19T11:16:11.232Z,2.30
2018-12-19T11:18:42.838Z,1.57
2018-12-19T11:21:14.004Z,2.27
2018-12-19T11:23:44.321Z,1.87
2018-12-19T11:26:14.939Z,2.63
2018-12-19T11:28:46.048Z,2.40
2018-12-19T11:31:16.734Z,2.67
2018-12-19T11:33:47.099Z,3.00
2018-12-19T11:36:18.213Z,3.60
2018-12-19T11:38:48.585Z,4.00
2018-12-19T11:41:18.965Z,2.73
2018-12-19T11:43:50.242Z,3.40
2018-12-19T11:46:20.615Z,2.60
2018-12-19T11:48:51.764Z,2.73
2018-12-19T11:51:22.167Z,2.20
2018-12-19T11:53:52.545Z,3.00
2018-12-19T11:59:07.325Z,1.87
2018-12-19T12:01:41.574Z,1.97
2018-12-19T12:04:10.406Z,2.10
2018-12-19T12:06:40.817Z,2.70
2018-12-19T12:09:11.921Z,2.20
2018-12-19T12:11:48.039Z,3.20
2018-12-19T12:14:15.743Z,2.40
2018-12-19T12:16:51.267Z,1.40
2018-12-19T12:19:21.641Z,2.23
2018-12-19T12:21:52.017Z,1.60
2018-12-19T12:24:22.440Z,1.90
2018-12-19T12:26:52.810Z,1.90
2018-12-19T12:29:23.168Z,2.07
2018-12-19T12:31:54.999Z,2.27
2018-12-19T12:34:25.660Z,2.70
2018-12-19T12:36:56.798Z,2.33
2018-12-19T12:39:27.449Z,2.27
2018-12-19T12:41:58.591Z,2.40
2018-12-19T12:44:28.903Z,2.57
2018-12-19T12:47:01.668Z,2.53
2018-12-19T12:49:31.387Z,2.70
2018-12-19T12:52:02.039Z,2.73
2018-12-19T12:54:33.489Z,2.17
2018-12-19T12:57:04.627Z,2.13
2018-12-19T12:59:34.994Z,2.40
2018-12-19T13:02:06.067Z,2.60
2018-12-19T13:04:36.432Z,2.30
2018-12-19T13:07:07.611Z,1.70
2018-12-19T13:09:38.025Z,3.70
2018-12-19T13:12:08.404Z,2.73
2018-12-19T13:14:38.771Z,3.50
2018-12-19T13:17:22.915Z,2.77
2018-12-19T13:19:54.046Z,2.47
2018-12-19T13:22:25.133Z,2.33
2018-12-19T13:25:14.576Z,2.03
2018-12-19T13:27:44.942Z,2.37
2018-12-19T13:30:35.731Z,1.67
2018-12-19T13:33:12.247Z,2.33
2018-12-19T13:35:42.640Z,2.50
2018-12-19T13:38:15.053Z,2.07
2018-12-19T13:40:46.412Z,2.23
2018-12-19T13:43:17.579Z,2.40
2018-12-19T13:45:47.946Z,2.53
2018-12-19T13:48:18.257Z,2.83
2018-12-19T13:50:48.852Z,2.80
2018-12-19T13:53:19.215Z,3.00
2018-12-19T13:56:11.025Z,2.27
2018-12-19T13:58:41.856Z,2.47
2018-12-19T14:01:12.169Z,2.13
2018-12-19T14:03:42.441Z,2.23
2018-12-19T14:06:12.202Z,2.73
2018-12-19T14:08:42.577Z,2.00
2018-12-19T14:11:12.970Z,2.40
2018-12-19T14:13:43.343Z,2.00
2018-12-19T14:16:13.709Z,1.90
2018-12-19T14:18:44.323Z,2.10
2018-12-19T14:21:14.699Z,2.20
2018-12-19T14:23:45.070Z,2.60
2018-12-19T14:26:16.231Z,2.23
2018-12-19T14:28:47.365Z,2.77
2018-12-19T14:31:18.446Z,3.03
2018-12-19T14:33:49.860Z,2.33
2018-12-19T14:36:20.995Z,2.87
2018-12-19T14:38:52.139Z,2.80
2018-12-19T14:41:22.538Z,2.60
2018-12-19T14:43:52.855Z,2.70
2018-12-19T14:46:24.242Z,2.53
2018-12-19T14:48:54.880Z,3.37
2018-12-19T14:51:25.194Z,2.60
2018-12-19T14:53:55.619Z,2.57
2018-12-19T14:56:25.971Z,2.33
2018-12-19T14:58:56.355Z,2.60
2018-12-19T15:01:26.719Z,2.00
2018-12-19T15:03:57.822Z,2.50
2018-12-19T15:06:28.396Z,2.17
2018-12-19T15:08:58.769Z,2.17
2018-12-19T15:11:30.793Z,2.47
2018-12-19T15:14:01.159Z,2.30
2018-12-19T15:16:33.583Z,2.13
2018-12-19T15:19:05.059Z,3.47
2018-12-19T15:21:35.436Z,2.83
2018-12-19T15:24:05.798Z,2.37
2018-12-19T15:26:37.015Z,2.93
2018-12-19T15:29:07.389Z,2.30
2018-12-19T15:31:37.760Z,2.73
2018-12-19T15:34:08.164Z,3.13
2018-12-19T15:36:39.877Z,24.00
2018-12-19T15:39:10.207Z,27.50
2018-12-19T15:41:41.328Z,12.73
2018-12-19T15:44:12.468Z,5.30
2018-12-19T15:46:43.552Z,5.87
2018-12-19T15:49:13.953Z,4.05
2018-12-19T15:51:45.044Z,3.20
2018-12-19T15:54:15.628Z,3.40
2018-12-19T15:56:45.975Z,3.23
2018-12-19T15:59:16.291Z,3.47
2018-12-19T16:01:46.996Z,3.03
2018-12-19T16:04:17.325Z,2.47
2018-12-19T16:06:48.406Z,2.73
2018-12-19T16:09:18.786Z,2.80
2018-12-19T16:11:49.180Z,3.50
2018-12-19T16:14:41.995Z,3.70
2018-12-19T16:17:12.384Z,3.57
2018-12-19T16:22:25.728Z,2.73
2018-12-19T16:24:56.037Z,2.80
2018-12-19T16:27:26.429Z,3.43
2018-12-19T16:29:56.816Z,3.03
2018-12-19T16:32:27.185Z,2.60
2018-12-19T16:34:57.497Z,3.03
2018-12-19T16:37:27.883Z,3.20
2018-12-19T16:39:58.255Z,2.50
2018-12-19T16:42:28.632Z,2.67
2018-12-19T16:44:59.047Z,2.43
2018-12-19T16:47:50.570Z,2.17
2018-12-19T16:50:20.954Z,2.50
2018-12-19T16:52:51.319Z,4.27
2018-12-19T16:55:23.746Z,3.07
2018-12-19T16:57:54.841Z,2.70
2018-12-19T17:00:25.151Z,2.23
2018-12-19T17:03:16.465Z,2.00
2018-12-19T17:05:52.967Z,1.80
2018-12-19T17:08:23.381Z,2.13
2018-12-19T17:10:53.759Z,2.57
2018-12-19T17:13:24.120Z,1.93
2018-12-19T17:15:54.719Z,2.10
2018-12-19T17:18:27.845Z,2.20
2018-12-19T17:21:02.887Z,1.63
2018-12-19T17:23:38.367Z,2.03
2018-12-19T17:26:14.347Z,3.00
2018-12-19T17:28:44.707Z,2.47
2018-12-19T17:31:37.300Z,2.23
2018-12-19T17:34:14.601Z,2.20
2018-12-19T17:36:49.713Z,2.10
2018-12-19T17:39:20.087Z,1.57
2018-12-19T17:41:50.408Z,1.97
2018-12-19T17:44:20.751Z,2.20
2018-12-19T17:46:58.715Z,1.40
2018-12-19T17:49:32.822Z,2.10
2018-12-19T17:52:07.215Z,2.00
2018-12-19T17:54:37.561Z,2.20
2018-12-19T17:57:07.878Z,2.03
2018-12-19T17:59:38.251Z,2.03
2018-12-19T18:02:08.634Z,2.17
2018-12-19T18:04:39.283Z,1.70
2018-12-19T18:07:12.791Z,2.23
2018-12-19T18:09:43.608Z,2.13
2018-12-19T18:12:13.980Z,2.17
2018-12-19T18:14:44.347Z,2.13
2018-12-19T18:17:14.728Z,2.10
2018-12-19T18:19:47.888Z,3.00
2018-12-19T18:22:19.019Z,2.57
2018-12-19T18:24:49.419Z,2.70
2018-12-19T18:27:22.542Z,2.07
2018-12-19T18:29:53.899Z,2.87
2018-12-19T18:32:27.613Z,2.30
2018-12-19T18:35:01.452Z,2.70
2018-12-19T18:37:34.606Z,2.50
2018-12-19T18:40:08.125Z,2.17
2018-12-19T18:42:38.486Z,2.40
2018-12-19T18:45:12.447Z,2.50
2018-12-19T18:47:46.337Z,2.60
2018-12-19T18:50:16.681Z,2.07
2018-12-19T18:52:50.642Z,2.67
2018-12-19T18:55:30.063Z,2.97
2018-12-19T18:58:05.782Z,2.70
2018-12-19T19:00:36.187Z,2.50
2018-12-19T19:03:07.856Z,1.80
2018-12-19T19:05:38.190Z,2.77
2018-12-19T19:08:08.838Z,2.80
2018-12-19T19:10:40.173Z,3.47
2018-12-19T19:13:19.490Z,2.70
2018-12-19T19:15:44.827Z,2.43
2018-12-19T19:18:17.930Z,2.97
2018-12-19T19:20:54.109Z,2.63
2018-12-19T19:23:46.094Z,2.63
2018-12-19T19:26:20.326Z,2.30
2018-12-19T19:28:53.428Z,2.90
2018-12-19T19:31:24.033Z,2.90
2018-12-19T19:33:55.486Z,2.43
2018-12-19T19:39:18.316Z,2.67
2018-12-19T19:41:48.623Z,2.20
2018-12-19T19:44:29.478Z,2.60
2018-12-19T19:47:00.049Z,2.53
2018-12-19T19:49:30.352Z,2.57
2018-12-19T19:52:00.798Z,2.60
2018-12-19T19:54:31.117Z,2.80
2018-12-19T19:57:24.116Z,2.80
2018-12-19T19:59:58.163Z,2.90
2018-12-19T20:02:28.766Z,2.40
2018-12-19T20:05:01.986Z,2.73
2018-12-19T20:07:35.281Z,2.93
2018-12-19T20:10:11.314Z,2.60
2018-12-19T20:12:42.466Z,2.70
2018-12-19T20:15:12.784Z,2.90
2018-12-19T20:17:44.130Z,2.37
2018-12-19T20:20:16.586Z,2.33
2018-12-19T20:22:48.577Z,1.80
2018-12-19T20:25:19.134Z,1.83
2018-12-19T20:27:53.938Z,2.17
2018-12-19T20:30:27.056Z,2.07
2018-12-19T20:33:13.474Z,2.33
2018-12-19T20:35:45.062Z,2.10
2018-12-19T20:38:21.404Z,2.37
2018-12-19T20:40:54.574Z,2.77
2018-12-19T20:43:40.978Z,2.03
2018-12-19T20:46:16.378Z,2.40
2018-12-19T20:48:47.472Z,2.80
2018-12-19T20:51:17.835Z,2.53
2018-12-19T20:53:51.652Z,2.73
2018-12-19T20:56:22.035Z,2.30
2018-12-19T20:58:54.707Z,3.77
2018-12-19T21:01:25.819Z,3.30
2018-12-19T21:03:58.176Z,2.33
2018-12-19T21:06:31.514Z,1.80
2018-12-19T21:09:02.107Z,1.77
2018-12-19T21:11:35.921Z,2.10
2018-12-19T21:14:06.562Z,2.40
2018-12-19T21:16:55.525Z,1.90
2018-12-19T21:19:26.138Z,1.93
2018-12-19T21:21:57.458Z,2.33
2018-12-19T21:24:27.785Z,2.30
2018-12-19T21:26:58.147Z,2.60
2018-12-19T21:29:36.202Z,1.97
2018-12-19T21:32:13.836Z,2.87
2018-12-19T21:34:44.781Z,2.40
2018-12-19T21:37:15.150Z,2.53
2018-12-19T21:39:45.788Z,2.73
2018-12-19T21:42:16.890Z,3.10
2018-12-19T21:44:47.513Z,2.83
2018-12-19T21:47:18.862Z,2.83
2018-12-19T21:49:49.967Z,2.07
2018-12-19T21:52:20.287Z,2.70
2018-12-19T21:55:10.315Z,2.67
2018-12-19T21:57:42.467Z,2.83
2018-12-19T22:00:12.833Z,2.87
2018-12-19T22:02:43.228Z,2.97
2018-12-19T22:05:13.928Z,3.40
2018-12-19T22:07:45.420Z,3.10
2018-12-19T22:10:15.829Z,3.40
2018-12-19T22:12:46.142Z,2.97
2018-12-19T22:15:18.767Z,3.10
2018-12-19T22:17:49.103Z,2.83
2018-12-19T22:20:19.559Z,2.60
2018-12-19T22:22:50.558Z,2.70
2018-12-19T22:25:20.952Z,3.10
2018-12-19T22:27:51.266Z,3.00
2018-12-19T22:30:21.642Z,3.03
2018-12-19T22:32:51.971Z,2.70
2018-12-19T22:35:22.343Z,3.17
2018-12-19T22:37:52.721Z,2.67
2018-12-19T22:40:23.435Z,2.70
2018-12-19T22:42:54.874Z,2.80
2018-12-19T22:45:25.386Z,2.80
2018-12-19T22:47:58.769Z,3.30
2018-12-19T22:50:32.417Z,3.10
2018-12-19T22:53:03.601Z,2.47
2018-12-19T22:55:34.932Z,2.90
2018-12-19T22:58:05.245Z,2.57
2018-12-19T23:00:54.604Z,3.10
2018-12-19T23:03:25.024Z,2.47
2018-12-19T23:05:58.357Z,2.63
2018-12-19T23:08:28.790Z,2.33
2018-12-19T23:10:59.840Z,2.60
2018-12-19T23:13:34.248Z,3.13
2018-12-19T23:16:04.646Z,2.87
2018-12-19T23:18:37.738Z,2.87
2018-12-19T23:21:07.073Z,3.30
2018-12-19T23:23:38.383Z,2.87
2018-12-19T23:26:09.712Z,2.63
2018-12-19T23:28:40.181Z,2.93
2018-12-19T23:31:10.412Z,2.90
2018-12-19T23:33:42.857Z,3.10
2018-12-19T23:36:13.202Z,2.43
2018-12-19T23:38:43.636Z,2.27
2018-12-19T23:41:14.016Z,2.93
2018-12-19T23:46:28.014Z,2.47
2018-12-19T23:48:58.717Z,2.87
2018-12-19T23:51:31.071Z,2.93
2018-12-19T23:54:02.496Z,2.47
2018-12-19T23:56:33.086Z,2.90
2018-12-19T23:59:04.325Z,2.60
